createdAt,value
2019-01-12T00:00:23.236Z,0
2019-01-12T00:01:34.248Z,0
2019-01-12T00:02:43.958Z,0
2019-01-12T00:03:53.908Z,0
2019-01-12T00:05:03.592Z,0
2019-01-12T00:06:13.533Z,0
2019-01-12T00:07:23.218Z,0
2019-01-12T00:08:32.913Z,0
2019-01-12T00:09:42.610Z,0
2019-01-12T00:10:52.311Z,0
2019-01-12T00:12:02.271Z,0
2019-01-12T00:13:12.086Z,0
2019-01-12T00:14:22.037Z,0
2019-01-12T00:15:31.987Z,0
2019-01-12T00:16:41.691Z,0
2019-01-12T00:17:51.637Z,0
2019-01-12T00:19:01.569Z,0
2019-01-12T00:20:11.262Z,0
2019-01-12T00:21:21.196Z,0
2019-01-12T00:22:30.887Z,0
2019-01-12T00:23:40.829Z,0
2019-01-12T00:24:50.759Z,0
2019-01-12T00:26:00.713Z,0
2019-01-12T00:27:10.461Z,0
2019-01-12T00:28:20.401Z,0
2019-01-12T00:29:30.343Z,0
2019-01-12T00:30:40.294Z,0
2019-01-12T00:31:50.008Z,0
2019-01-12T00:32:59.948Z,0
2019-01-12T00:34:09.939Z,0
2019-01-12T00:35:19.136Z,0
2019-01-12T00:36:29.089Z,0
2019-01-12T00:37:39.043Z,0
2019-01-12T00:38:48.983Z,0
2019-01-12T00:39:58.663Z,0
2019-01-12T00:41:08.616Z,0
2019-01-12T00:42:18.303Z,0
2019-01-12T00:43:28.253Z,0
2019-01-12T00:44:38.215Z,0
2019-01-12T00:45:47.653Z,0
2019-01-12T00:46:57.408Z,0
2019-01-12T00:48:07.358Z,0
2019-01-12T00:49:17.287Z,0
2019-01-12T00:50:26.969Z,0
2019-01-12T00:51:36.925Z,0
2019-01-12T00:52:46.624Z,0
2019-01-12T00:53:56.574Z,0
2019-01-12T00:55:06.269Z,0
2019-01-12T00:56:15.708Z,0
2019-01-12T00:57:25.641Z,0
2019-01-12T00:58:35.580Z,0
2019-01-12T00:59:45.708Z,0
2019-01-12T01:00:55.650Z,0
2019-01-12T01:02:05.087Z,0
2019-01-12T01:03:14.538Z,0
2019-01-12T01:04:25.066Z,0
2019-01-12T01:05:34.804Z,0
2019-01-12T01:06:44.753Z,0
2019-01-12T01:07:54.447Z,0
2019-01-12T01:09:04.397Z,0
2019-01-12T01:10:14.337Z,0
2019-01-12T01:11:24.039Z,0
2019-01-12T01:12:34.741Z,0
2019-01-12T01:13:44.689Z,0
2019-01-12T01:14:54.633Z,0
2019-01-12T01:16:04.089Z,0
2019-01-12T01:17:13.517Z,0
2019-01-12T01:18:23.210Z,0
2019-01-12T01:19:33.144Z,0
2019-01-12T01:20:42.825Z,0
2019-01-12T01:21:52.521Z,0
2019-01-12T01:23:02.207Z,0
2019-01-12T01:24:12.159Z,0
2019-01-12T01:25:21.847Z,0
2019-01-12T01:26:31.800Z,0
2019-01-12T01:27:41.729Z,0
2019-01-12T01:28:51.189Z,0
2019-01-12T01:30:01.131Z,0
2019-01-12T01:31:11.063Z,0
2019-01-12T01:32:20.771Z,0
2019-01-12T01:33:34.902Z,0
2019-01-12T01:34:44.858Z,0
2019-01-12T01:35:54.827Z,0
2019-01-12T01:37:04.256Z,0
2019-01-12T01:38:14.175Z,0
2019-01-12T01:39:23.872Z,0
2019-01-12T01:40:33.617Z,0
2019-01-12T01:41:43.554Z,0
2019-01-12T01:42:53.481Z,0
2019-01-12T01:44:03.428Z,0
2019-01-12T01:45:13.360Z,0
2019-01-12T01:46:22.789Z,0
2019-01-12T01:47:32.736Z,0
2019-01-12T01:48:42.679Z,0
2019-01-12T01:49:52.370Z,0
2019-01-12T01:51:02.083Z,0
2019-01-12T01:52:11.766Z,0
2019-01-12T01:53:21.449Z,0
2019-01-12T01:54:31.134Z,0
2019-01-12T01:55:40.560Z,0
2019-01-12T01:56:50.481Z,0
2019-01-12T01:58:00.221Z,0
2019-01-12T01:59:10.164Z,0
2019-01-12T02:00:20.105Z,0
2019-01-12T02:01:30.064Z,0
2019-01-12T02:02:40.010Z,0
2019-01-12T02:03:49.970Z,0
2019-01-12T02:04:59.910Z,0
2019-01-12T02:06:09.606Z,0
2019-01-12T02:07:19.549Z,0
2019-01-12T02:08:28.985Z,0
2019-01-12T02:09:38.168Z,0
2019-01-12T02:10:48.104Z,0
2019-01-12T02:11:57.819Z,0
2019-01-12T02:13:07.757Z,0
2019-01-12T02:14:17.450Z,0
2019-01-12T02:15:27.402Z,0
2019-01-12T02:16:37.339Z,0
2019-01-12T02:17:47.031Z,0
2019-01-12T02:18:56.750Z,0
2019-01-12T02:20:06.700Z,0
2019-01-12T02:21:16.645Z,0
2019-01-12T02:22:26.622Z,0
2019-01-12T02:23:36.561Z,0
2019-01-12T02:24:46.487Z,0
2019-01-12T02:25:56.197Z,0
2019-01-12T02:27:05.916Z,0
2019-01-12T02:28:15.848Z,0
2019-01-12T02:29:25.801Z,0
2019-01-12T02:30:35.730Z,0
2019-01-12T02:31:45.676Z,0
2019-01-12T02:32:55.368Z,0
2019-01-12T02:34:05.314Z,0
2019-01-12T02:35:15.270Z,0
2019-01-12T02:36:25.243Z,0
2019-01-12T02:37:35.176Z,0
2019-01-12T02:38:44.900Z,0
2019-01-12T02:39:54.346Z,0
2019-01-12T02:41:04.316Z,0
2019-01-12T02:42:14.002Z,0
2019-01-12T02:43:23.447Z,0
2019-01-12T02:44:33.386Z,0
2019-01-12T02:45:43.338Z,0
2019-01-12T02:46:53.284Z,0
2019-01-12T02:48:02.975Z,0
2019-01-12T02:49:12.671Z,0
2019-01-12T02:50:22.679Z,0
2019-01-12T02:51:32.625Z,0
2019-01-12T02:52:42.551Z,0
2019-01-12T02:53:52.510Z,0
2019-01-12T02:55:10.653Z,0
2019-01-12T02:56:20.612Z,0
2019-01-12T02:57:30.298Z,0
2019-01-12T02:58:39.732Z,0
2019-01-12T02:59:49.705Z,0
2019-01-12T03:00:59.661Z,0
2019-01-12T03:02:09.598Z,0
2019-01-12T03:03:19.566Z,0
2019-01-12T03:04:29.287Z,0
2019-01-12T03:05:39.240Z,0
2019-01-12T03:06:49.196Z,0
2019-01-12T03:07:58.882Z,0
2019-01-12T03:09:08.900Z,0
2019-01-12T03:10:18.860Z,0
2019-01-12T03:11:28.301Z,0
2019-01-12T03:12:37.732Z,0
2019-01-12T03:13:47.420Z,0
2019-01-12T03:14:56.868Z,0
2019-01-12T03:16:06.837Z,0
2019-01-12T03:17:16.543Z,0
2019-01-12T03:18:26.489Z,0
2019-01-12T03:19:36.440Z,0
2019-01-12T03:20:46.376Z,0
2019-01-12T03:21:56.335Z,0
2019-01-12T03:23:06.031Z,0
2019-01-12T03:24:15.984Z,0
2019-01-12T03:25:26.526Z,0
2019-01-12T03:26:36.242Z,0
2019-01-12T03:27:45.930Z,0
2019-01-12T03:28:55.708Z,0
2019-01-12T03:30:05.146Z,0
2019-01-12T03:31:15.120Z,0
2019-01-12T03:32:25.122Z,0
2019-01-12T03:33:35.102Z,0
2019-01-12T03:34:44.795Z,0
2019-01-12T03:35:54.745Z,0
2019-01-12T03:37:04.442Z,0
2019-01-12T03:38:14.128Z,0
2019-01-12T03:39:23.816Z,0
2019-01-12T03:40:33.761Z,0
2019-01-12T03:41:43.458Z,0
2019-01-12T03:42:53.402Z,0
2019-01-12T03:44:03.098Z,0
2019-01-12T03:45:12.813Z,0
2019-01-12T03:46:22.507Z,0
2019-01-12T03:47:32.455Z,0
2019-01-12T03:48:42.151Z,0
2019-01-12T03:49:52.099Z,0
2019-01-12T03:51:01.558Z,0
2019-01-12T03:52:11.497Z,0
2019-01-12T03:53:21.189Z,0
2019-01-12T03:54:31.139Z,0
2019-01-12T03:55:40.832Z,0
2019-01-12T03:56:50.523Z,0
2019-01-12T03:58:00.485Z,0
2019-01-12T03:59:10.432Z,0
2019-01-12T04:00:19.737Z,0
2019-01-12T04:01:29.688Z,0
2019-01-12T04:02:39.141Z,0
2019-01-12T04:03:48.875Z,0
2019-01-12T04:04:58.297Z,0
2019-01-12T04:06:08.220Z,0
2019-01-12T04:07:17.915Z,0
2019-01-12T04:08:27.856Z,0
2019-01-12T04:09:37.793Z,0
2019-01-12T04:10:47.489Z,0
2019-01-12T04:11:56.931Z,0
2019-01-12T04:13:06.615Z,0
2019-01-12T04:14:16.146Z,0
2019-01-12T04:15:26.092Z,0
2019-01-12T04:16:35.288Z,0
2019-01-12T04:17:44.992Z,0
2019-01-12T04:18:54.987Z,0
2019-01-12T04:20:05.013Z,0
2019-01-12T04:21:14.711Z,0
2019-01-12T04:22:24.157Z,0
2019-01-12T04:23:34.102Z,0
2019-01-12T04:24:44.047Z,0
2019-01-12T04:25:53.479Z,0
2019-01-12T04:27:02.944Z,0
2019-01-12T04:28:12.399Z,0
2019-01-12T04:29:22.093Z,0
2019-01-12T04:30:31.805Z,0
2019-01-12T04:31:41.499Z,0
2019-01-12T04:32:51.465Z,0
2019-01-12T04:34:01.409Z,0
2019-01-12T04:35:10.845Z,0
2019-01-12T04:36:20.533Z,0
2019-01-12T04:37:30.524Z,0
2019-01-12T04:38:40.469Z,0
2019-01-12T04:39:50.166Z,0
2019-01-12T04:41:00.116Z,0
2019-01-12T04:42:10.061Z,0
2019-01-12T04:43:19.995Z,0
2019-01-12T04:44:29.701Z,0
2019-01-12T04:45:39.398Z,0
2019-01-12T04:46:49.345Z,0
2019-01-12T04:47:59.301Z,0
2019-01-12T04:49:08.998Z,0
2019-01-12T04:50:18.954Z,0
2019-01-12T04:51:28.916Z,0
2019-01-12T04:52:38.613Z,0
2019-01-12T04:53:48.299Z,0
2019-01-12T04:54:58.254Z,0
2019-01-12T04:56:08.201Z,0
2019-01-12T04:57:18.141Z,0
2019-01-12T04:58:28.083Z,0
2019-01-12T04:59:37.773Z,0
2019-01-12T05:00:47.477Z,0
2019-01-12T05:01:57.166Z,0
2019-01-12T05:03:06.615Z,0
2019-01-12T05:04:16.562Z,0
2019-01-12T05:05:26.513Z,0
2019-01-12T05:06:35.947Z,0
2019-01-12T05:07:45.380Z,0
2019-01-12T05:08:55.097Z,0
2019-01-12T05:10:04.560Z,0
2019-01-12T05:11:14.498Z,0
2019-01-12T05:12:24.191Z,0
2019-01-12T05:13:34.134Z,0
2019-01-12T05:14:43.827Z,0
2019-01-12T05:15:53.505Z,0
2019-01-12T05:17:03.199Z,0
2019-01-12T05:18:13.148Z,0
2019-01-12T05:19:23.097Z,0
2019-01-12T05:20:33.630Z,0
2019-01-12T05:21:43.445Z,0
2019-01-12T05:22:52.915Z,0
2019-01-12T05:24:02.858Z,0
2019-01-12T05:25:12.815Z,0
2019-01-12T05:26:22.762Z,0
2019-01-12T05:27:32.714Z,0
2019-01-12T05:28:42.679Z,0
2019-01-12T05:29:52.620Z,0
2019-01-12T05:31:02.566Z,0
2019-01-12T05:32:12.529Z,0
2019-01-12T05:33:22.471Z,0
2019-01-12T05:34:32.153Z,0
2019-01-12T05:35:42.112Z,0
2019-01-12T05:36:52.055Z,0
2019-01-12T05:38:01.987Z,0
2019-01-12T05:39:11.689Z,0
2019-01-12T05:40:21.363Z,0
2019-01-12T05:41:31.324Z,0
2019-01-12T05:42:41.259Z,0
2019-01-12T05:43:50.946Z,0
2019-01-12T05:45:00.905Z,0
2019-01-12T05:46:10.837Z,0
2019-01-12T05:47:20.784Z,0
2019-01-12T05:48:30.483Z,0
2019-01-12T05:49:40.444Z,0
2019-01-12T05:50:50.431Z,0
2019-01-12T05:52:00.150Z,0
2019-01-12T05:53:10.092Z,0
2019-01-12T05:54:19.770Z,0
2019-01-12T05:55:29.706Z,0
2019-01-12T05:56:39.487Z,0
2019-01-12T05:57:49.201Z,0
2019-01-12T05:58:59.133Z,0
2019-01-12T06:00:08.571Z,0
2019-01-12T06:01:18.526Z,0
2019-01-12T06:02:28.472Z,0
2019-01-12T06:03:38.411Z,0
2019-01-12T06:04:48.346Z,0
2019-01-12T06:05:58.030Z,0
2019-01-12T06:07:07.907Z,0
2019-01-12T06:08:17.860Z,0
2019-01-12T06:09:27.555Z,0
2019-01-12T06:10:37.504Z,0
2019-01-12T06:11:47.201Z,0
2019-01-12T06:12:57.154Z,0
2019-01-12T06:14:06.848Z,0
2019-01-12T06:15:16.781Z,0
2019-01-12T06:16:26.726Z,0
2019-01-12T06:17:36.662Z,0
2019-01-12T06:18:46.613Z,0
2019-01-12T06:19:56.554Z,0
2019-01-12T06:21:06.485Z,0
2019-01-12T06:22:16.177Z,0
2019-01-12T06:23:26.109Z,0
2019-01-12T06:24:35.547Z,0
2019-01-12T06:25:45.497Z,0
2019-01-12T06:26:55.441Z,0
2019-01-12T06:28:05.395Z,0
2019-01-12T06:29:15.335Z,0
2019-01-12T06:30:24.533Z,0
2019-01-12T06:31:34.215Z,0
2019-01-12T06:32:43.658Z,0
2019-01-12T06:33:53.600Z,0
2019-01-12T06:35:03.284Z,0
2019-01-12T06:36:13.002Z,0
2019-01-12T06:37:22.977Z,0
2019-01-12T06:38:32.929Z,0
2019-01-12T06:39:42.878Z,0
2019-01-12T06:40:52.335Z,4
2019-01-12T06:42:02.037Z,4
2019-01-12T06:43:11.739Z,4
2019-01-12T06:44:21.175Z,4
2019-01-12T06:45:31.123Z,4
2019-01-12T06:46:40.816Z,4
2019-01-12T06:47:50.780Z,8
2019-01-12T06:49:00.723Z,8
2019-01-12T06:50:10.670Z,8
2019-01-12T06:51:20.362Z,12
2019-01-12T06:52:29.791Z,12
2019-01-12T06:53:39.738Z,12
2019-01-12T06:54:49.730Z,12
2019-01-12T06:55:59.417Z,20
2019-01-12T06:57:09.351Z,20
2019-01-12T06:58:18.803Z,24
2019-01-12T06:59:28.785Z,28
2019-01-12T07:00:38.489Z,32
2019-01-12T07:01:47.917Z,40
2019-01-12T07:02:57.846Z,52
2019-01-12T07:04:07.555Z,68
2019-01-12T07:05:17.494Z,72
2019-01-12T07:06:27.424Z,76
2019-01-12T07:07:37.381Z,80
2019-01-12T07:08:47.313Z,88
2019-01-12T07:09:57.281Z,104
2019-01-12T07:11:07.210Z,120
2019-01-12T07:12:16.661Z,140
2019-01-12T07:13:26.337Z,148
2019-01-12T07:14:36.296Z,160
2019-01-12T07:15:46.235Z,180
2019-01-12T07:16:56.166Z,196
2019-01-12T07:18:11.292Z,196
2019-01-12T07:19:20.992Z,220
2019-01-12T07:20:30.680Z,272
2019-01-12T07:21:40.636Z,292
2019-01-12T07:22:51.208Z,328
2019-01-12T07:24:01.134Z,364
2019-01-12T07:25:11.067Z,380
2019-01-12T07:26:24.500Z,420
2019-01-12T07:27:34.201Z,464
2019-01-12T07:28:43.897Z,476
2019-01-12T07:29:53.598Z,520
2019-01-12T07:31:03.539Z,536
2019-01-12T07:32:13.229Z,516
2019-01-12T07:33:22.916Z,648
2019-01-12T07:34:32.853Z,684
2019-01-12T07:35:42.033Z,712
2019-01-12T07:36:51.717Z,768
2019-01-12T07:38:01.657Z,908
2019-01-12T07:39:11.099Z,888
2019-01-12T07:40:21.048Z,1040
2019-01-12T07:41:30.994Z,960
2019-01-12T07:42:40.938Z,1056
2019-01-12T07:43:50.869Z,1052
2019-01-12T07:45:00.813Z,1056
2019-01-12T07:46:10.496Z,1036
2019-01-12T07:47:19.934Z,1020
2019-01-12T07:48:29.872Z,1096
2019-01-12T07:49:39.564Z,1084
2019-01-12T07:50:49.487Z,1068
2019-01-12T07:51:59.189Z,1136
2019-01-12T07:53:09.132Z,1112
2019-01-12T07:54:19.064Z,952
2019-01-12T07:55:29.005Z,1056
2019-01-12T07:56:38.700Z,1180
2019-01-12T07:57:48.638Z,1184
2019-01-12T07:58:58.064Z,1112
2019-01-12T08:00:09.430Z,860
2019-01-12T08:01:19.116Z,728
2019-01-12T08:02:28.841Z,812
2019-01-12T08:03:38.288Z,1012
2019-01-12T08:04:48.218Z,1252
2019-01-12T08:05:57.896Z,1364
2019-01-12T08:07:07.336Z,1468
2019-01-12T08:08:17.287Z,1592
2019-01-12T08:09:27.240Z,1700
2019-01-12T08:10:37.177Z,1676
2019-01-12T08:11:47.134Z,1820
2019-01-12T08:12:57.063Z,2080
2019-01-12T08:14:06.743Z,2292
2019-01-12T08:15:16.696Z,2548
2019-01-12T08:16:26.362Z,2912
2019-01-12T08:17:36.056Z,3160
2019-01-12T08:18:46.019Z,3404
2019-01-12T08:19:55.703Z,3436
2019-01-12T08:21:05.404Z,3480
2019-01-12T08:22:15.344Z,3392
2019-01-12T08:23:25.040Z,3100
2019-01-12T08:24:34.720Z,3016
2019-01-12T08:25:43.914Z,2892
2019-01-12T08:26:53.852Z,2920
2019-01-12T08:28:03.544Z,2856
2019-01-12T08:29:13.480Z,2976
2019-01-12T08:30:23.427Z,2892
2019-01-12T08:31:33.364Z,2616
2019-01-12T08:32:43.062Z,2740
2019-01-12T08:33:52.766Z,2728
2019-01-12T08:35:02.720Z,2756
2019-01-12T08:36:12.693Z,2720
2019-01-12T08:37:22.642Z,2660
2019-01-12T08:38:32.077Z,2808
2019-01-12T08:39:41.525Z,2888
2019-01-12T08:40:51.220Z,3008
2019-01-12T08:42:00.911Z,2596
2019-01-12T08:43:10.851Z,2296
2019-01-12T08:44:20.789Z,2104
2019-01-12T08:45:30.736Z,1816
2019-01-12T08:46:40.679Z,1816
2019-01-12T08:47:50.838Z,1812
2019-01-12T08:49:00.631Z,2040
2019-01-12T08:50:10.328Z,2392
2019-01-12T08:51:20.273Z,2596
2019-01-12T08:52:30.214Z,2520
2019-01-12T08:53:40.210Z,2796
2019-01-12T08:54:49.913Z,2960
2019-01-12T08:55:59.854Z,2976
2019-01-12T08:57:09.805Z,3176
2019-01-12T08:58:19.752Z,3340
2019-01-12T08:59:29.452Z,3052
2019-01-12T09:00:39.399Z,3480
2019-01-12T09:01:49.352Z,3676
2019-01-12T09:02:59.294Z,3892
2019-01-12T09:04:09.229Z,3696
2019-01-12T09:05:18.928Z,3460
2019-01-12T09:06:28.871Z,3344
2019-01-12T09:07:38.579Z,3540
2019-01-12T09:08:48.540Z,3712
2019-01-12T09:09:57.972Z,3908
2019-01-12T09:11:07.918Z,3864
2019-01-12T09:12:17.867Z,3896
2019-01-12T09:13:27.806Z,3680
2019-01-12T09:14:37.777Z,3848
2019-01-12T09:15:47.476Z,3340
2019-01-12T09:16:57.429Z,3488
2019-01-12T09:18:07.106Z,3880
2019-01-12T09:19:17.075Z,4032
2019-01-12T09:20:27.027Z,3656
2019-01-12T09:21:36.971Z,3324
2019-01-12T09:22:46.930Z,3044
2019-01-12T09:23:56.875Z,2940
2019-01-12T09:25:06.822Z,3080
2019-01-12T09:26:16.506Z,3504
2019-01-12T09:27:26.207Z,3728
2019-01-12T09:28:35.412Z,4040
2019-01-12T09:29:45.351Z,4240
2019-01-12T09:30:55.867Z,4384
2019-01-12T09:32:05.869Z,5064
2019-01-12T09:33:16.513Z,5420
2019-01-12T09:34:26.192Z,5320
2019-01-12T09:35:35.912Z,4972
2019-01-12T09:36:45.597Z,4592
2019-01-12T09:37:55.540Z,4904
2019-01-12T09:39:05.290Z,5256
2019-01-12T09:40:15.237Z,5760
2019-01-12T09:41:25.186Z,5724
2019-01-12T09:42:34.881Z,5240
2019-01-12T09:43:44.562Z,4684
2019-01-12T09:44:54.494Z,4812
2019-01-12T09:46:04.448Z,4620
2019-01-12T09:47:15.553Z,4676
2019-01-12T09:48:25.510Z,3872
2019-01-12T09:49:35.451Z,3800
2019-01-12T09:50:45.416Z,4064
2019-01-12T09:51:55.102Z,5020
2019-01-12T09:53:05.042Z,4976
2019-01-12T09:54:14.732Z,5108
2019-01-12T09:55:24.710Z,5100
2019-01-12T09:56:34.644Z,4256
2019-01-12T09:57:44.337Z,4964
2019-01-12T09:58:54.016Z,4732
2019-01-12T10:00:03.721Z,4272
2019-01-12T10:01:13.427Z,4908
2019-01-12T10:02:23.401Z,6104
2019-01-12T10:03:33.340Z,7072
2019-01-12T10:04:43.152Z,9336
2019-01-12T10:05:53.095Z,8748
2019-01-12T10:07:02.778Z,8280
2019-01-12T10:08:12.480Z,7284
2019-01-12T10:09:22.176Z,7000
2019-01-12T10:10:32.130Z,6892
2019-01-12T10:11:42.090Z,8476
2019-01-12T10:12:52.052Z,10680
2019-01-12T10:14:01.753Z,11568
2019-01-12T10:15:11.432Z,12852
2019-01-12T10:16:21.117Z,10272
2019-01-12T10:17:31.074Z,8708
2019-01-12T10:18:41.008Z,7196
2019-01-12T10:19:50.970Z,6508
2019-01-12T10:21:00.928Z,7116
2019-01-12T10:22:10.890Z,8116
2019-01-12T10:23:20.329Z,6404
2019-01-12T10:24:30.057Z,8372
2019-01-12T10:25:39.759Z,8512
2019-01-12T10:26:49.202Z,6772
2019-01-12T10:28:05.920Z,7096
2019-01-12T10:29:16.363Z,7584
2019-01-12T10:30:26.058Z,7404
2019-01-12T10:31:36.018Z,6728
2019-01-12T10:32:45.461Z,5492
2019-01-12T10:33:55.401Z,7136
2019-01-12T10:35:05.363Z,7248
2019-01-12T10:36:14.812Z,6904
2019-01-12T10:37:24.488Z,7488
2019-01-12T10:38:34.182Z,6012
2019-01-12T10:39:43.949Z,5488
2019-01-12T10:40:53.892Z,5432
2019-01-12T10:42:03.835Z,5168
2019-01-12T10:43:13.779Z,5024
2019-01-12T10:44:23.724Z,4440
2019-01-12T10:45:33.667Z,4908
2019-01-12T10:46:43.611Z,5848
2019-01-12T10:47:53.580Z,5196
2019-01-12T10:49:03.549Z,4548
2019-01-12T10:50:13.493Z,3732
2019-01-12T10:51:22.945Z,3276
2019-01-12T10:52:32.628Z,3556
2019-01-12T10:53:42.351Z,3880
2019-01-12T10:54:52.294Z,4204
2019-01-12T10:56:01.758Z,4684
2019-01-12T10:57:12.874Z,6924
2019-01-12T10:58:22.574Z,6284
2019-01-12T10:59:32.016Z,6076
2019-01-12T11:00:42.059Z,5732
2019-01-12T11:01:52.008Z,5700
2019-01-12T11:03:01.741Z,5560
2019-01-12T11:04:11.688Z,6228
2019-01-12T11:05:21.646Z,7096
2019-01-12T11:06:31.597Z,7724
2019-01-12T11:07:42.343Z,8156
2019-01-12T11:08:52.321Z,10300
2019-01-12T11:10:09.047Z,15964
2019-01-12T11:11:19.002Z,13220
2019-01-12T11:12:28.946Z,9296
2019-01-12T11:13:38.901Z,6824
2019-01-12T11:14:48.585Z,5740
2019-01-12T11:15:58.534Z,5524
2019-01-12T11:17:07.997Z,6420
2019-01-12T11:18:17.945Z,8216
2019-01-12T11:19:27.416Z,9156
2019-01-12T11:20:37.113Z,6832
2019-01-12T11:21:47.058Z,5592
2019-01-12T11:22:57.247Z,5800
2019-01-12T11:24:06.686Z,5980
2019-01-12T11:25:16.635Z,5804
2019-01-12T11:26:26.075Z,5860
2019-01-12T11:27:35.773Z,5944
2019-01-12T11:28:45.713Z,6264
2019-01-12T11:29:55.432Z,4652
2019-01-12T11:31:05.443Z,5472
2019-01-12T11:32:15.389Z,6784
2019-01-12T11:33:25.090Z,7484
2019-01-12T11:34:35.044Z,9536
2019-01-12T11:35:44.893Z,11848
2019-01-12T11:36:54.342Z,9632
2019-01-12T11:38:04.276Z,11808
2019-01-12T11:39:13.970Z,12540
2019-01-12T11:40:23.939Z,11896
2019-01-12T11:41:33.895Z,10132
2019-01-12T11:42:43.840Z,7500
2019-01-12T11:43:53.547Z,8152
2019-01-12T11:45:03.489Z,11832
2019-01-12T11:46:13.433Z,12568
2019-01-12T11:47:23.404Z,12300
2019-01-12T11:48:33.367Z,11760
2019-01-12T11:49:43.329Z,10248
2019-01-12T11:50:53.011Z,8928
2019-01-12T11:52:02.464Z,9056
2019-01-12T11:53:12.164Z,6604
2019-01-12T11:54:22.116Z,4440
2019-01-12T11:55:31.811Z,4632
2019-01-12T11:56:41.784Z,6024
2019-01-12T11:57:51.745Z,6188
2019-01-12T11:59:01.695Z,4748
2019-01-12T12:00:11.401Z,3616
2019-01-12T12:01:21.341Z,5028
2019-01-12T12:02:37.517Z,5744
2019-01-12T12:03:47.187Z,4884
2019-01-12T12:04:56.904Z,4328
2019-01-12T12:06:06.864Z,3920
2019-01-12T12:07:16.831Z,3636
2019-01-12T12:08:26.836Z,3792
2019-01-12T12:09:36.767Z,4236
2019-01-12T12:10:46.724Z,4020
2019-01-12T12:11:56.675Z,4592
2019-01-12T12:13:06.619Z,6568
2019-01-12T12:14:16.583Z,9124
2019-01-12T12:15:26.529Z,10140
2019-01-12T12:16:36.221Z,8860
2019-01-12T12:17:45.921Z,8756
2019-01-12T12:18:55.868Z,9872
2019-01-12T12:20:05.826Z,9296
2019-01-12T12:21:15.536Z,8736
2019-01-12T12:22:25.461Z,9332
2019-01-12T12:23:35.401Z,8804
2019-01-12T12:24:45.337Z,8840
2019-01-12T12:25:54.775Z,8512
2019-01-12T12:27:05.159Z,8900
2019-01-12T12:28:15.156Z,9072
2019-01-12T12:29:24.901Z,8976
2019-01-12T12:30:34.853Z,7944
2019-01-12T12:31:44.799Z,7768
2019-01-12T12:32:54.585Z,7868
2019-01-12T12:34:04.278Z,8060
2019-01-12T12:35:13.970Z,7728
2019-01-12T12:36:23.918Z,6812
2019-01-12T12:37:33.864Z,6164
2019-01-12T12:38:43.303Z,5880
2019-01-12T12:39:53.269Z,5488
2019-01-12T12:41:02.950Z,5616
2019-01-12T12:42:12.914Z,6300
2019-01-12T12:43:22.602Z,6380
2019-01-12T12:44:32.315Z,6152
2019-01-12T12:45:42.283Z,5036
2019-01-12T12:46:52.239Z,5012
2019-01-12T12:48:01.951Z,5804
2019-01-12T12:49:11.758Z,5920
2019-01-12T12:50:21.452Z,7212
2019-01-12T12:51:31.468Z,8952
2019-01-12T12:52:40.915Z,10232
2019-01-12T12:53:50.379Z,10652
2019-01-12T12:55:00.322Z,10252
2019-01-12T12:56:10.271Z,9636
2019-01-12T12:57:20.217Z,9236
2019-01-12T12:58:30.151Z,8196
2019-01-12T12:59:40.123Z,7152
2019-01-12T13:00:50.115Z,6832
2019-01-12T13:01:59.818Z,8576
2019-01-12T13:03:09.791Z,8268
2019-01-12T13:04:19.483Z,7716
2019-01-12T13:05:29.438Z,7516
2019-01-12T13:06:39.140Z,6844
2019-01-12T13:07:48.594Z,7928
2019-01-12T13:08:58.543Z,7300
2019-01-12T13:10:08.493Z,6576
2019-01-12T13:11:18.181Z,5844
2019-01-12T13:12:28.115Z,5324
2019-01-12T13:13:38.071Z,4852
2019-01-12T13:14:47.773Z,4044
2019-01-12T13:15:57.465Z,3332
2019-01-12T13:17:07.410Z,3340
2019-01-12T13:18:17.383Z,3188
2019-01-12T13:19:26.579Z,3432
2019-01-12T13:20:36.329Z,3168
2019-01-12T13:21:46.276Z,2880
2019-01-12T13:22:56.693Z,3188
2019-01-12T13:24:06.649Z,2780
2019-01-12T13:25:16.349Z,2832
2019-01-12T13:26:25.793Z,3632
2019-01-12T13:27:42.355Z,3652
2019-01-12T13:28:52.299Z,3384
2019-01-12T13:30:02.016Z,3796
2019-01-12T13:31:11.701Z,3600
2019-01-12T13:32:21.168Z,4020
2019-01-12T13:33:30.865Z,5012
2019-01-12T13:34:40.721Z,5412
2019-01-12T13:35:50.488Z,5140
2019-01-12T13:36:59.973Z,5140
2019-01-12T13:38:09.691Z,4976
2019-01-12T13:39:19.136Z,4884
2019-01-12T13:40:29.102Z,3928
2019-01-12T13:41:39.072Z,4904
2019-01-12T13:42:48.521Z,4900
2019-01-12T13:43:58.484Z,4748
2019-01-12T13:45:08.206Z,4044
2019-01-12T13:46:18.121Z,3904
2019-01-12T13:47:28.287Z,3560
2019-01-12T13:48:37.733Z,3016
2019-01-12T13:49:48.049Z,2688
2019-01-12T13:50:58.091Z,2488
2019-01-12T13:52:08.037Z,2272
2019-01-12T13:53:17.731Z,1884
2019-01-12T13:54:28.323Z,2244
2019-01-12T13:55:38.309Z,2164
2019-01-12T13:56:48.256Z,1620
2019-01-12T13:57:57.953Z,1664
2019-01-12T13:59:07.922Z,1860
2019-01-12T14:00:17.884Z,1860
2019-01-12T14:01:27.821Z,1764
2019-01-12T14:02:37.272Z,1652
2019-01-12T14:03:46.979Z,1360
2019-01-12T14:04:56.926Z,1264
2019-01-12T14:06:06.381Z,1152
2019-01-12T14:07:16.353Z,1360
2019-01-12T14:08:26.385Z,1212
2019-01-12T14:09:36.348Z,1204
2019-01-12T14:10:46.039Z,1304
2019-01-12T14:11:55.992Z,1252
2019-01-12T14:13:05.939Z,1040
2019-01-12T14:14:15.891Z,1004
2019-01-12T14:15:25.839Z,892
2019-01-12T14:16:35.778Z,764
2019-01-12T14:17:45.712Z,756
2019-01-12T14:18:55.666Z,728
2019-01-12T14:20:05.616Z,696
2019-01-12T14:21:15.307Z,656
2019-01-12T14:22:25.279Z,636
2019-01-12T14:23:35.278Z,736
2019-01-12T14:24:44.988Z,780
2019-01-12T14:25:54.941Z,752
2019-01-12T14:27:04.697Z,800
2019-01-12T14:28:14.415Z,732
2019-01-12T14:29:24.350Z,560
2019-01-12T14:30:34.048Z,576
2019-01-12T14:31:43.743Z,516
2019-01-12T14:32:53.699Z,508
2019-01-12T14:34:03.654Z,488
2019-01-12T14:35:13.594Z,516
2019-01-12T14:36:23.543Z,500
2019-01-12T14:37:33.495Z,460
2019-01-12T14:38:43.443Z,404
2019-01-12T14:39:53.144Z,404
2019-01-12T14:41:02.845Z,448
2019-01-12T14:42:12.809Z,376
2019-01-12T14:43:22.730Z,352
2019-01-12T14:44:32.188Z,316
2019-01-12T14:45:41.891Z,320
2019-01-12T14:46:51.847Z,336
2019-01-12T14:48:01.833Z,328
2019-01-12T14:49:11.803Z,304
2019-01-12T14:50:21.496Z,284
2019-01-12T14:51:31.469Z,288
2019-01-12T14:52:41.432Z,284
2019-01-12T14:53:51.370Z,264
2019-01-12T14:55:01.333Z,276
2019-01-12T14:56:11.313Z,272
2019-01-12T14:57:20.763Z,232
2019-01-12T14:58:30.718Z,244
2019-01-12T14:59:40.729Z,216
2019-01-12T15:00:50.266Z,220
2019-01-12T15:02:00.242Z,200
2019-01-12T15:03:09.998Z,196
2019-01-12T15:04:19.767Z,160
2019-01-12T15:05:29.928Z,160
2019-01-12T15:06:40.014Z,136
2019-01-12T15:07:49.789Z,108
2019-01-12T15:08:59.755Z,100
2019-01-12T15:10:09.713Z,80
2019-01-12T15:11:19.171Z,76
2019-01-12T15:12:29.159Z,68
2019-01-12T15:13:38.897Z,76
2019-01-12T15:14:48.614Z,64
2019-01-12T15:15:58.069Z,64
2019-01-12T15:17:07.761Z,56
2019-01-12T15:18:19.269Z,52
2019-01-12T15:19:29.232Z,48
2019-01-12T15:20:39.233Z,44
2019-01-12T15:21:49.169Z,44
2019-01-12T15:22:59.121Z,36
2019-01-12T15:24:10.168Z,40
2019-01-12T15:25:20.210Z,36
2019-01-12T15:26:29.656Z,32
2019-01-12T15:27:39.101Z,28
2019-01-12T15:28:49.041Z,24
2019-01-12T15:29:58.992Z,24
2019-01-12T15:31:08.988Z,16
2019-01-12T15:32:18.681Z,16
2019-01-12T15:33:28.627Z,12
2019-01-12T15:34:38.314Z,12
2019-01-12T15:35:47.812Z,12
2019-01-12T15:36:57.746Z,8
2019-01-12T15:38:07.706Z,8
2019-01-12T15:39:17.404Z,4
2019-01-12T15:40:27.104Z,4
2019-01-12T15:41:37.076Z,4
2019-01-12T15:42:46.770Z,4
2019-01-12T15:43:56.730Z,4
2019-01-12T15:45:06.702Z,4
2019-01-12T15:46:16.634Z,0
2019-01-12T15:47:26.604Z,0
2019-01-12T15:48:36.541Z,0
2019-01-12T15:49:46.246Z,0
2019-01-12T15:50:56.667Z,0
2019-01-12T15:52:06.375Z,0
2019-01-12T15:53:16.086Z,0
2019-01-12T15:54:25.779Z,0
2019-01-12T15:55:35.484Z,0
2019-01-12T15:56:45.424Z,0
2019-01-12T15:57:55.118Z,0
2019-01-12T15:59:04.806Z,0
2019-01-12T16:00:14.244Z,0
2019-01-12T16:01:23.956Z,0
2019-01-12T16:02:39.786Z,0
2019-01-12T16:03:49.630Z,0
2019-01-12T16:04:59.570Z,0
2019-01-12T16:06:09.502Z,0
2019-01-12T16:07:19.214Z,0
2019-01-12T16:08:29.162Z,0
2019-01-12T16:09:39.110Z,0
2019-01-12T16:10:48.570Z,0
2019-01-12T16:11:58.521Z,0
2019-01-12T16:13:08.558Z,0
2019-01-12T16:14:18.512Z,0
2019-01-12T16:15:28.216Z,0
2019-01-12T16:16:38.170Z,0
2019-01-12T16:17:47.878Z,0
2019-01-12T16:18:57.849Z,0
2019-01-12T16:20:07.786Z,0
2019-01-12T16:21:17.508Z,0